sensor_id;sensor_type;location;lat;lon;timestamp;pressure;altitude;pressure_sealevel;temperature
45393;BMP280;31129;44.810;10.334;2023-01-10T00:01:29;99986.88;;;7.46
45393;BMP280;31129;44.810;10.334;2023-01-10T00:03:54;99991.47;;;7.64
45393;BMP280;31129;44.810;10.334;2023-01-10T00:06:20;99990.06;;;7.44
45393;BMP280;31129;44.810;10.334;2023-01-10T00:08:45;99988.44;;;7.38
45393;BMP280;31129;44.810;10.334;2023-01-10T00:11:10;99992.31;;;7.46
45393;BMP280;31129;44.810;10.334;2023-01-10T00:13:55;99990.25;;;7.32
45393;BMP280;31129;44.810;10.334;2023-01-10T00:16:21;99995.53;;;7.26
45393;BMP280;31129;44.810;10.334;2023-01-10T00:18:46;100006.72;;;7.19
45393;BMP280;31129;44.810;10.334;2023-01-10T00:21:12;100000.81;;;7.30
45393;BMP280;31129;44.810;10.334;2023-01-10T00:23:39;100009.81;;;7.45
45393;BMP280;31129;44.810;10.334;2023-01-10T00:26:07;100002.88;;;7.44
45393;BMP280;31129;44.810;10.334;2023-01-10T00:28:33;100004.09;;;7.34
45393;BMP280;31129;44.810;10.334;2023-01-10T00:30:59;100002.28;;;7.40
45393;BMP280;31129;44.810;10.334;2023-01-10T00:33:28;100002.13;;;7.34
45393;BMP280;31129;44.810;10.334;2023-01-10T00:35:56;100003.34;;;7.42
45393;BMP280;31129;44.810;10.334;2023-01-10T00:38:22;100001.34;;;7.52
45393;BMP280;31129;44.810;10.334;2023-01-10T00:40:48;99992.81;;;7.68
45393;BMP280;31129;44.810;10.334;2023-01-10T00:43:13;99993.25;;;7.76
45393;BMP280;31129;44.810;10.334;2023-01-10T00:45:57;100000.84;;;7.63
45393;BMP280;31129;44.810;10.334;2023-01-10T00:48:24;100001.13;;;7.65
45393;BMP280;31129;44.810;10.334;2023-01-10T00:50:50;100015.63;;;7.62
45393;BMP280;31129;44.810;10.334;2023-01-10T00:53:15;100016.25;;;7.47
45393;BMP280;31129;44.810;10.334;2023-01-10T00:55:41;100017.19;;;7.53
45393;BMP280;31129;44.810;10.334;2023-01-10T00:58:06;100016.16;;;7.42
45393;BMP280;31129;44.810;10.334;2023-01-10T01:00:37;100017.97;;;7.45
45393;BMP280;31129;44.810;10.334;2023-01-10T01:03:03;100029.88;;;7.38
45393;BMP280;31129;44.810;10.334;2023-01-10T01:05:29;100033.81;;;7.28
45393;BMP280;31129;44.810;10.334;2023-01-10T01:07:54;100040.63;;;7.23
45393;BMP280;31129;44.810;10.334;2023-01-10T01:10:20;100046.03;;;7.14
45393;BMP280;31129;44.810;10.334;2023-01-10T01:12:59;100049.50;;;7.15
45393;BMP280;31129;44.810;10.334;2023-01-10T01:15:29;100057.50;;;7.18
45393;BMP280;31129;44.810;10.334;2023-01-10T01:17:55;100053.47;;;7.05
45393;BMP280;31129;44.810;10.334;2023-01-10T01:20:23;100052.38;;;7.02
45393;BMP280;31129;44.810;10.334;2023-01-10T01:22:48;100055.69;;;7.15
45393;BMP280;31129;44.810;10.334;2023-01-10T01:25:14;100053.78;;;7.07
45393;BMP280;31129;44.810;10.334;2023-01-10T01:27:39;100053.31;;;7.59
45393;BMP280;31129;44.810;10.334;2023-01-10T01:30:06;100063.91;;;7.48
45393;BMP280;31129;44.810;10.334;2023-01-10T01:32:32;100068.31;;;7.37
45393;BMP280;31129;44.810;10.334;2023-01-10T01:34:58;100075.84;;;7.42
45393;BMP280;31129;44.810;10.334;2023-01-10T01:37:23;100076.31;;;7.40
45393;BMP280;31129;44.810;10.334;2023-01-10T01:39:48;100079.19;;;7.18
45393;BMP280;31129;44.810;10.334;2023-01-10T01:42:28;100084.00;;;7.42
45393;BMP280;31129;44.810;10.334;2023-01-10T01:50:45;100087.00;;;7.53
45393;BMP280;31129;44.810;10.334;2023-01-10T01:53:21;100080.16;;;7.57
45393;BMP280;31129;44.810;10.334;2023-01-10T01:55:49;100090.56;;;7.59
45393;BMP280;31129;44.810;10.334;2023-01-10T01:58:23;100099.50;;;7.50
45393;BMP280;31129;44.810;10.334;2023-01-10T02:00:50;100104.50;;;7.43
45393;BMP280;31129;44.810;10.334;2023-01-10T02:03:15;100111.44;;;7.25
45393;BMP280;31129;44.810;10.334;2023-01-10T02:05:45;100109.94;;;7.24
45393;BMP280;31129;44.810;10.334;2023-01-10T02:08:11;100111.13;;;7.33
45393;BMP280;31129;44.810;10.334;2023-01-10T02:10:46;100114.31;;;7.13
45393;BMP280;31129;44.810;10.334;2023-01-10T02:13:18;100106.63;;;7.11
45393;BMP280;31129;44.810;10.334;2023-01-10T02:15:44;100113.09;;;7.23
45393;BMP280;31129;44.810;10.334;2023-01-10T02:18:10;100112.03;;;7.30
45393;BMP280;31129;44.810;10.334;2023-01-10T02:40:21;100129.81;;;7.31
45393;BMP280;31129;44.810;10.334;2023-01-10T02:45:57;100129.97;;;7.27
45393;BMP280;31129;44.810;10.334;2023-01-10T02:48:23;100118.25;;;7.21
45393;BMP280;31129;44.810;10.334;2023-01-10T02:51:16;100125.00;;;7.25
45393;BMP280;31129;44.810;10.334;2023-01-10T02:54:07;100128.63;;;7.22
45393;BMP280;31129;44.810;10.334;2023-01-10T03:07:07;100133.13;;;7.35
45393;BMP280;31129;44.810;10.334;2023-01-10T03:09:52;100129.97;;;7.27
45393;BMP280;31129;44.810;10.334;2023-01-10T03:12:31;100143.09;;;7.29
45393;BMP280;31129;44.810;10.334;2023-01-10T03:15:02;100144.75;;;7.35
45393;BMP280;31129;44.810;10.334;2023-01-10T03:17:32;100148.81;;;7.21
45393;BMP280;31129;44.810;10.334;2023-01-10T03:20:02;100151.53;;;7.21
45393;BMP280;31129;44.810;10.334;2023-01-10T03:22:30;100158.75;;;7.15
45393;BMP280;31129;44.810;10.334;2023-01-10T03:24:58;100158.19;;;7.20
45393;BMP280;31129;44.810;10.334;2023-01-10T03:30:02;100162.06;;;7.01
45393;BMP280;31129;44.810;10.334;2023-01-10T03:32:31;100161.16;;;7.13
45393;BMP280;31129;44.810;10.334;2023-01-10T03:35:00;100164.47;;;6.99
45393;BMP280;31129;44.810;10.334;2023-01-10T03:37:43;100172.47;;;6.93
45393;BMP280;31129;44.810;10.334;2023-01-10T03:40:25;100178.78;;;7.00
45393;BMP280;31129;44.810;10.334;2023-01-10T03:42:57;100190.66;;;6.84
45393;BMP280;31129;44.810;10.334;2023-01-10T03:46:06;100189.47;;;7.03
45393;BMP280;31129;44.810;10.334;2023-01-10T03:48:37;100197.16;;;6.96
45393;BMP280;31129;44.810;10.334;2023-01-10T03:51:06;100203.63;;;6.89
45393;BMP280;31129;44.810;10.334;2023-01-10T03:53:33;100197.94;;;6.96
45393;BMP280;31129;44.810;10.334;2023-01-10T03:55:59;100188.84;;;6.81
45393;BMP280;31129;44.810;10.334;2023-01-10T03:58:26;100200.59;;;6.87
45393;BMP280;31129;44.810;10.334;2023-01-10T04:00:52;100209.03;;;6.80
45393;BMP280;31129;44.810;10.334;2023-01-10T04:03:17;100191.44;;;6.93
45393;BMP280;31129;44.810;10.334;2023-01-10T04:05:43;100205.41;;;6.83
45393;BMP280;31129;44.810;10.334;2023-01-10T04:08:08;100199.69;;;6.81
45393;BMP280;31129;44.810;10.334;2023-01-10T04:10:34;100196.47;;;6.73
45393;BMP280;31129;44.810;10.334;2023-01-10T04:13:00;100189.72;;;6.69
45393;BMP280;31129;44.810;10.334;2023-01-10T04:15:27;100195.78;;;6.82
45393;BMP280;31129;44.810;10.334;2023-01-10T04:17:53;100202.50;;;6.68
45393;BMP280;31129;44.810;10.334;2023-01-10T04:20:19;100193.97;;;6.79
45393;BMP280;31129;44.810;10.334;2023-01-10T04:22:44;100195.59;;;6.67
45393;BMP280;31129;44.810;10.334;2023-01-10T04:25:10;100200.56;;;6.69
45393;BMP280;31129;44.810;10.334;2023-01-10T04:27:35;100203.56;;;6.71
45393;BMP280;31129;44.810;10.334;2023-01-10T04:30:01;100206.25;;;6.62
45393;BMP280;31129;44.810;10.334;2023-01-10T04:32:26;100209.56;;;6.66
45393;BMP280;31129;44.810;10.334;2023-01-10T04:34:52;100205.97;;;6.69
45393;BMP280;31129;44.810;10.334;2023-01-10T04:37:18;100222.06;;;6.72
45393;BMP280;31129;44.810;10.334;2023-01-10T04:39:44;100221.03;;;6.70
45393;BMP280;31129;44.810;10.334;2023-01-10T04:42:09;100224.22;;;6.86
45393;BMP280;31129;44.810;10.334;2023-01-10T04:44:35;100223.22;;;6.93
45393;BMP280;31129;44.810;10.334;2023-01-10T04:47:00;100238.13;;;6.98
45393;BMP280;31129;44.810;10.334;2023-01-10T04:49:26;100233.31;;;7.02
45393;BMP280;31129;44.810;10.334;2023-01-10T04:51:52;100239.81;;;7.13
45393;BMP280;31129;44.810;10.334;2023-01-10T04:54:21;100246.03;;;7.23
45393;BMP280;31129;44.810;10.334;2023-01-10T04:56:47;100233.38;;;7.38
45393;BMP280;31129;44.810;10.334;2023-01-10T04:59:13;100238.78;;;7.56
45393;BMP280;31129;44.810;10.334;2023-01-10T05:01:39;100250.72;;;7.68
45393;BMP280;31129;44.810;10.334;2023-01-10T05:04:05;100237.59;;;7.76
45393;BMP280;31129;44.810;10.334;2023-01-10T05:06:30;100261.84;;;7.79
45393;BMP280;31129;44.810;10.334;2023-01-10T05:08:56;100251.47;;;7.96
45393;BMP280;31129;44.810;10.334;2023-01-10T05:11:21;100266.66;;;8.03
45393;BMP280;31129;44.810;10.334;2023-01-10T05:13:47;100268.47;;;8.15
45393;BMP280;31129;44.810;10.334;2023-01-10T05:16:13;100270.84;;;8.22
45393;BMP280;31129;44.810;10.334;2023-01-10T05:18:41;100272.16;;;8.45
45393;BMP280;31129;44.810;10.334;2023-01-10T05:21:08;100284.13;;;8.71
45393;BMP280;31129;44.810;10.334;2023-01-10T05:23:35;100279.91;;;8.70
45393;BMP280;31129;44.810;10.334;2023-01-10T05:26:09;100291.97;;;8.78
45393;BMP280;31129;44.810;10.334;2023-01-10T05:28:35;100291.47;;;8.89
45393;BMP280;31129;44.810;10.334;2023-01-10T05:31:00;100293.72;;;8.90
45393;BMP280;31129;44.810;10.334;2023-01-10T05:33:26;100310.91;;;8.97
45393;BMP280;31129;44.810;10.334;2023-01-10T05:35:51;100314.78;;;9.05
45393;BMP280;31129;44.810;10.334;2023-01-10T05:38:20;100295.16;;;9.24
45393;BMP280;31129;44.810;10.334;2023-01-10T05:40:55;100305.63;;;9.41
45393;BMP280;31129;44.810;10.334;2023-01-10T05:43:27;100311.78;;;9.50
45393;BMP280;31129;44.810;10.334;2023-01-10T05:45:53;100318.72;;;9.51
45393;BMP280;31129;44.810;10.334;2023-01-10T05:48:18;100319.66;;;9.48
45393;BMP280;31129;44.810;10.334;2023-01-10T05:50:44;100326.28;;;9.56
45393;BMP280;31129;44.810;10.334;2023-01-10T05:53:10;100329.00;;;9.56
45393;BMP280;31129;44.810;10.334;2023-01-10T05:55:35;100339.88;;;9.56
45393;BMP280;31129;44.810;10.334;2023-01-10T05:58:01;100342.16;;;9.58
45393;BMP280;31129;44.810;10.334;2023-01-10T06:00:27;100350.22;;;9.67
45393;BMP280;31129;44.810;10.334;2023-01-10T06:02:56;100365.56;;;9.65
45393;BMP280;31129;44.810;10.334;2023-01-10T06:05:22;100353.53;;;9.71
45393;BMP280;31129;44.810;10.334;2023-01-10T06:07:48;100355.78;;;9.73
45393;BMP280;31129;44.810;10.334;2023-01-10T06:10:14;100363.72;;;9.61
45393;BMP280;31129;44.810;10.334;2023-01-10T06:12:40;100371.16;;;9.85
45393;BMP280;31129;44.810;10.334;2023-01-10T06:15:07;100394.03;;;9.78
45393;BMP280;31129;44.810;10.334;2023-01-10T06:17:32;100400.25;;;9.93
45393;BMP280;31129;44.810;10.334;2023-01-10T06:19:58;100393.63;;;9.94
45393;BMP280;31129;44.810;10.334;2023-01-10T06:22:23;100399.66;;;9.98
45393;BMP280;31129;44.810;10.334;2023-01-10T06:24:50;100415.53;;;10.00
45393;BMP280;31129;44.810;10.334;2023-01-10T06:27:16;100412.81;;;10.00
45393;BMP280;31129;44.810;10.334;2023-01-10T06:29:41;100414.03;;;9.99
45393;BMP280;31129;44.810;10.334;2023-01-10T06:32:06;100423.72;;;10.00
45393;BMP280;31129;44.810;10.334;2023-01-10T06:34:32;100418.72;;;9.98
45393;BMP280;31129;44.810;10.334;2023-01-10T06:36:57;100429.63;;;9.98
45393;BMP280;31129;44.810;10.334;2023-01-10T06:39:23;100451.34;;;10.08
45393;BMP280;31129;44.810;10.334;2023-01-10T06:41:48;100458.00;;;10.07
45393;BMP280;31129;44.810;10.334;2023-01-10T06:44:14;100466.59;;;10.14
45393;BMP280;31129;44.810;10.334;2023-01-10T06:46:39;100460.78;;;10.21
45393;BMP280;31129;44.810;10.334;2023-01-10T06:49:05;100456.81;;;10.22
45393;BMP280;31129;44.810;10.334;2023-01-10T06:51:30;100455.78;;;10.20
45393;BMP280;31129;44.810;10.334;2023-01-10T06:53:56;100490.84;;;10.12
45393;BMP280;31129;44.810;10.334;2023-01-10T06:56:21;100454.75;;;10.17
45393;BMP280;31129;44.810;10.334;2023-01-10T06:58:48;100483.72;;;10.15
45393;BMP280;31129;44.810;10.334;2023-01-10T07:01:16;100497.06;;;10.13
45393;BMP280;31129;44.810;10.334;2023-01-10T07:03:42;100508.06;;;10.18
45393;BMP280;31129;44.810;10.334;2023-01-10T07:06:08;100506.19;;;10.24
45393;BMP280;31129;44.810;10.334;2023-01-10T07:08:38;100499.41;;;10.20
45393;BMP280;31129;44.810;10.334;2023-01-10T07:11:05;100537.31;;;10.18
45393;BMP280;31129;44.810;10.334;2023-01-10T07:13:30;100528.16;;;10.21
45393;BMP280;31129;44.810;10.334;2023-01-10T07:16:10;100535.88;;;10.22
45393;BMP280;31129;44.810;10.334;2023-01-10T07:18:37;100532.59;;;10.18
45393;BMP280;31129;44.810;10.334;2023-01-10T07:21:03;100536.75;;;10.28
45393;BMP280;31129;44.810;10.334;2023-01-10T07:23:29;100552.53;;;10.24
45393;BMP280;31129;44.810;10.334;2023-01-10T07:25:57;100553.94;;;10.20
45393;BMP280;31129;44.810;10.334;2023-01-10T07:28:26;100572.13;;;10.38
45393;BMP280;31129;44.810;10.334;2023-01-10T07:30:51;100544.78;;;10.32
45393;BMP280;31129;44.810;10.334;2023-01-10T07:33:17;100583.50;;;10.36
45393;BMP280;31129;44.810;10.334;2023-01-10T07:35:42;100574.53;;;10.45
45393;BMP280;31129;44.810;10.334;2023-01-10T07:38:08;100583.75;;;10.47
45393;BMP280;31129;44.810;10.334;2023-01-10T07:40:34;100575.41;;;10.51
45393;BMP280;31129;44.810;10.334;2023-01-10T07:43:01;100620.34;;;10.55
45393;BMP280;31129;44.810;10.334;2023-01-10T07:45:28;100575.88;;;10.64
45393;BMP280;31129;44.810;10.334;2023-01-10T07:51:01;100593.69;;;10.59
45393;BMP280;31129;44.810;10.334;2023-01-10T07:53:27;100621.97;;;10.62
45393;BMP280;31129;44.810;10.334;2023-01-10T07:55:53;100616.06;;;10.63
45393;BMP280;31129;44.810;10.334;2023-01-10T07:58:19;100612.13;;;10.64
45393;BMP280;31129;44.810;10.334;2023-01-10T08:00:45;100635.28;;;10.69
45393;BMP280;31129;44.810;10.334;2023-01-10T08:03:11;100636.75;;;10.70
45393;BMP280;31129;44.810;10.334;2023-01-10T08:05:37;100648.28;;;10.74
45393;BMP280;31129;44.810;10.334;2023-01-10T08:08:07;100626.25;;;10.78
45393;BMP280;31129;44.810;10.334;2023-01-10T08:10:34;100640.66;;;10.78
45393;BMP280;31129;44.810;10.334;2023-01-10T08:13:00;100654.03;;;10.76
45393;BMP280;31129;44.810;10.334;2023-01-10T08:15:25;100636.91;;;10.76
45393;BMP280;31129;44.810;10.334;2023-01-10T08:17:51;100655.94;;;10.85
45393;BMP280;31129;44.810;10.334;2023-01-10T08:20:16;100665.03;;;10.82
45393;BMP280;31129;44.810;10.334;2023-01-10T08:22:42;100671.56;;;10.84
45393;BMP280;31129;44.810;10.334;2023-01-10T08:25:08;100661.69;;;10.87
45393;BMP280;31129;44.810;10.334;2023-01-10T08:27:33;100673.66;;;10.89
45393;BMP280;31129;44.810;10.334;2023-01-10T08:29:59;100688.06;;;10.90
45393;BMP280;31129;44.810;10.334;2023-01-10T08:32:24;100685.59;;;10.92
45393;BMP280;31129;44.810;10.334;2023-01-10T08:34:50;100685.50;;;11.01
45393;BMP280;31129;44.810;10.334;2023-01-10T08:37:15;100693.84;;;11.07
45393;BMP280;31129;44.810;10.334;2023-01-10T08:39:41;100701.19;;;11.15
45393;BMP280;31129;44.810;10.334;2023-01-10T08:42:06;100711.19;;;11.18
45393;BMP280;31129;44.810;10.334;2023-01-10T08:44:32;100718.31;;;11.16
45393;BMP280;31129;44.810;10.334;2023-01-10T08:46:57;100717.41;;;11.19
45393;BMP280;31129;44.810;10.334;2023-01-10T08:49:23;100725.13;;;11.20
45393;BMP280;31129;44.810;10.334;2023-01-10T08:51:51;100717.50;;;11.24
45393;BMP280;31129;44.810;10.334;2023-01-10T08:54:17;100722.47;;;11.26
45393;BMP280;31129;44.810;10.334;2023-01-10T08:56:42;100731.06;;;11.33
45393;BMP280;31129;44.810;10.334;2023-01-10T08:59:08;100731.25;;;11.30
45393;BMP280;31129;44.810;10.334;2023-01-10T09:01:33;100749.91;;;11.31
45393;BMP280;31129;44.810;10.334;2023-01-10T09:03:59;100749.75;;;11.35
45393;BMP280;31129;44.810;10.334;2023-01-10T09:06:24;100769.44;;;11.39
45393;BMP280;31129;44.810;10.334;2023-01-10T09:08:50;100748.91;;;11.44
45393;BMP280;31129;44.810;10.334;2023-01-10T09:11:16;100764.34;;;11.47
45393;BMP280;31129;44.810;10.334;2023-01-10T09:13:41;100769.34;;;11.48
45393;BMP280;31129;44.810;10.334;2023-01-10T09:16:07;100808.56;;;11.60
45393;BMP280;31129;44.810;10.334;2023-01-10T09:18:33;100779.84;;;11.64
45393;BMP280;31129;44.810;10.334;2023-01-10T09:21:02;100807.63;;;11.78
45393;BMP280;31129;44.810;10.334;2023-01-10T09:23:28;100807.06;;;11.73
45393;BMP280;31129;44.810;10.334;2023-01-10T09:25:54;100802.94;;;11.78
45393;BMP280;31129;44.810;10.334;2023-01-10T09:28:22;100820.09;;;11.79
45393;BMP280;31129;44.810;10.334;2023-01-10T09:30:49;100808.03;;;11.85
45393;BMP280;31129;44.810;10.334;2023-01-10T09:33:14;100823.97;;;11.87
45393;BMP280;31129;44.810;10.334;2023-01-10T09:35:40;100828.75;;;11.92
45393;BMP280;31129;44.810;10.334;2023-01-10T09:38:10;100835.47;;;11.91
45393;BMP280;31129;44.810;10.334;2023-01-10T09:43:34;100842.66;;;12.03
45393;BMP280;31129;44.810;10.334;2023-01-10T09:46:13;100834.72;;;12.05
45393;BMP280;31129;44.810;10.334;2023-01-10T09:49:05;100838.94;;;12.06
45393;BMP280;31129;44.810;10.334;2023-01-10T09:51:46;100849.88;;;12.06
45393;BMP280;31129;44.810;10.334;2023-01-10T09:54:27;100848.66;;;12.07
45393;BMP280;31129;44.810;10.334;2023-01-10T09:56:54;100852.56;;;12.15
45393;BMP280;31129;44.810;10.334;2023-01-10T09:59:24;100861.03;;;12.17
45393;BMP280;31129;44.810;10.334;2023-01-10T10:01:58;100866.31;;;12.21
45393;BMP280;31129;44.810;10.334;2023-01-10T10:04:35;100874.38;;;12.24
45393;BMP280;31129;44.810;10.334;2023-01-10T10:07:02;100907.00;;;12.28
45393;BMP280;31129;44.810;10.334;2023-01-10T10:09:30;100900.13;;;12.32
45393;BMP280;31129;44.810;10.334;2023-01-10T10:21:02;100914.94;;;12.40
45393;BMP280;31129;44.810;10.334;2023-01-10T10:26:48;100898.69;;;12.52
45393;BMP280;31129;44.810;10.334;2023-01-10T10:29:28;100905.47;;;12.56
45393;BMP280;31129;44.810;10.334;2023-01-10T10:35:48;100892.63;;;12.62
45393;BMP280;31129;44.810;10.334;2023-01-10T10:37:54;100890.75;;;12.68
45393;BMP280;31129;44.810;10.334;2023-01-10T10:40:22;100901.03;;;12.73
45393;BMP280;31129;44.810;10.334;2023-01-10T10:42:55;100900.81;;;12.77
45393;BMP280;31129;44.810;10.334;2023-01-10T10:45:37;100900.34;;;12.78
45393;BMP280;31129;44.810;10.334;2023-01-10T10:48:18;100909.84;;;12.83
45393;BMP280;31129;44.810;10.334;2023-01-10T10:51:18;100895.25;;;12.86
45393;BMP280;31129;44.810;10.334;2023-01-10T10:53:45;100898.53;;;12.90
45393;BMP280;31129;44.810;10.334;2023-01-10T10:56:14;100898.34;;;12.94
45393;BMP280;31129;44.810;10.334;2023-01-10T10:58:43;100894.16;;;12.98
45393;BMP280;31129;44.810;10.334;2023-01-10T11:01:12;100915.41;;;13.03
45393;BMP280;31129;44.810;10.334;2023-01-10T11:03:45;100905.25;;;13.09
45393;BMP280;31129;44.810;10.334;2023-01-10T11:06:13;100916.22;;;13.09
45393;BMP280;31129;44.810;10.334;2023-01-10T11:08:42;100908.75;;;13.10
45393;BMP280;31129;44.810;10.334;2023-01-10T11:11:20;100903.84;;;13.14
45393;BMP280;31129;44.810;10.334;2023-01-10T11:13:57;100925.31;;;13.15
45393;BMP280;31129;44.810;10.334;2023-01-10T11:16:32;100914.59;;;13.17
45393;BMP280;31129;44.810;10.334;2023-01-10T11:21:39;100923.69;;;13.29
45393;BMP280;31129;44.810;10.334;2023-01-10T11:24:19;100920.22;;;13.29
45393;BMP280;31129;44.810;10.334;2023-01-10T11:26:46;100922.56;;;13.36
45393;BMP280;31129;44.810;10.334;2023-01-10T11:29:25;100905.16;;;13.39
45393;BMP280;31129;44.810;10.334;2023-01-10T11:31:53;100905.34;;;13.35
45393;BMP280;31129;44.810;10.334;2023-01-10T11:34:28;100909.66;;;13.42
45393;BMP280;31129;44.810;10.334;2023-01-10T11:37:03;100905.97;;;13.45
45393;BMP280;31129;44.810;10.334;2023-01-10T11:39:31;100895.75;;;13.45
45393;BMP280;31129;44.810;10.334;2023-01-10T11:44:48;100907.56;;;13.51
45393;BMP280;31129;44.810;10.334;2023-01-10T11:47:14;100919.34;;;13.58
45393;BMP280;31129;44.810;10.334;2023-01-10T11:49:45;100925.59;;;13.58
45393;BMP280;31129;44.810;10.334;2023-01-10T11:52:26;100919.28;;;13.52
45393;BMP280;31129;44.810;10.334;2023-01-10T11:54:57;100918.88;;;13.59
45393;BMP280;31129;44.810;10.334;2023-01-10T11:57:26;100915.84;;;13.57
45393;BMP280;31129;44.810;10.334;2023-01-10T11:59:57;100926.63;;;13.61
45393;BMP280;31129;44.810;10.334;2023-01-10T12:02:26;100927.44;;;13.67
45393;BMP280;31129;44.810;10.334;2023-01-10T12:04:58;100914.25;;;13.71
45393;BMP280;31129;44.810;10.334;2023-01-10T12:07:25;100932.47;;;13.74
45393;BMP280;31129;44.810;10.334;2023-01-10T12:10:00;100939.78;;;13.77
45393;BMP280;31129;44.810;10.334;2023-01-10T12:12:27;100943.59;;;13.85
45393;BMP280;31129;44.810;10.334;2023-01-10T12:14:57;100926.44;;;13.90
45393;BMP280;31129;44.810;10.334;2023-01-10T12:17:29;100932.00;;;13.96
45393;BMP280;31129;44.810;10.334;2023-01-10T12:19:58;100932.53;;;14.00
45393;BMP280;31129;44.810;10.334;2023-01-10T12:22:39;100934.78;;;14.01
45393;BMP280;31129;44.810;10.334;2023-01-10T12:25:21;100925.66;;;14.10
45393;BMP280;31129;44.810;10.334;2023-01-10T12:27:47;100948.09;;;14.08
45393;BMP280;31129;44.810;10.334;2023-01-10T12:30:31;100944.38;;;14.11
45393;BMP280;31129;44.810;10.334;2023-01-10T12:33:00;100928.44;;;14.15
45393;BMP280;31129;44.810;10.334;2023-01-10T12:35:42;100939.25;;;14.24
45393;BMP280;31129;44.810;10.334;2023-01-10T12:38:22;100937.78;;;14.29
45393;BMP280;31129;44.810;10.334;2023-01-10T12:41:10;100932.81;;;14.27
45393;BMP280;31129;44.810;10.334;2023-01-10T12:43:59;100923.09;;;14.32
45393;BMP280;31129;44.810;10.334;2023-01-10T12:46:49;100931.09;;;14.36
45393;BMP280;31129;44.810;10.334;2023-01-10T12:49:30;100929.16;;;14.42
45393;BMP280;31129;44.810;10.334;2023-01-10T12:52:06;100918.50;;;14.49
45393;BMP280;31129;44.810;10.334;2023-01-10T12:54:35;100931.53;;;14.54
45393;BMP280;31129;44.810;10.334;2023-01-10T12:57:07;100928.06;;;14.59
45393;BMP280;31129;44.810;10.334;2023-01-10T12:59:40;100926.31;;;14.56
45393;BMP280;31129;44.810;10.334;2023-01-10T13:02:13;100921.13;;;14.64
45393;BMP280;31129;44.810;10.334;2023-01-10T13:04:42;100927.34;;;14.64
45393;BMP280;31129;44.810;10.334;2023-01-10T13:07:11;100923.16;;;14.69
45393;BMP280;31129;44.810;10.334;2023-01-10T13:09:40;100935.81;;;14.61
45393;BMP280;31129;44.810;10.334;2023-01-10T13:12:21;100931.66;;;14.71
45393;BMP280;31129;44.810;10.334;2023-01-10T13:15:02;100943.91;;;14.70
45393;BMP280;31129;44.810;10.334;2023-01-10T13:17:38;100935.34;;;14.62
45393;BMP280;31129;44.810;10.334;2023-01-10T13:22:41;100936.16;;;14.74
45393;BMP280;31129;44.810;10.334;2023-01-10T13:25:18;100955.41;;;14.74
45393;BMP280;31129;44.810;10.334;2023-01-10T13:27:44;100964.91;;;14.79
45393;BMP280;31129;44.810;10.334;2023-01-10T13:30:31;100942.00;;;14.87
45393;BMP280;31129;44.810;10.334;2023-01-10T13:33:06;100946.03;;;14.92
45393;BMP280;31129;44.810;10.334;2023-01-10T13:35:40;100959.75;;;14.92
45393;BMP280;31129;44.810;10.334;2023-01-10T13:38:18;100945.00;;;14.89
45393;BMP280;31129;44.810;10.334;2023-01-10T13:41:03;100945.84;;;15.01
45393;BMP280;31129;44.810;10.334;2023-01-10T13:51:20;100955.34;;;15.11
45393;BMP280;31129;44.810;10.334;2023-01-10T13:58:56;100957.19;;;15.25
45393;BMP280;31129;44.810;10.334;2023-01-10T14:01:41;100958.28;;;15.39
45393;BMP280;31129;44.810;10.334;2023-01-10T14:04:28;100970.00;;;15.34
45393;BMP280;31129;44.810;10.334;2023-01-10T14:07:01;100970.50;;;15.32
45393;BMP280;31129;44.810;10.334;2023-01-10T14:09:40;100986.19;;;15.21
45393;BMP280;31129;44.810;10.334;2023-01-10T14:12:18;100979.50;;;15.33
45393;BMP280;31129;44.810;10.334;2023-01-10T14:14:54;100969.00;;;15.31
45393;BMP280;31129;44.810;10.334;2023-01-10T14:17:23;100984.75;;;15.31
45393;BMP280;31129;44.810;10.334;2023-01-10T14:22:36;100973.00;;;15.30
45393;BMP280;31129;44.810;10.334;2023-01-10T14:25:05;100976.44;;;15.25
45393;BMP280;31129;44.810;10.334;2023-01-10T14:27:42;100977.00;;;15.35
45393;BMP280;31129;44.810;10.334;2023-01-10T14:30:17;100978.56;;;15.47
45393;BMP280;31129;44.810;10.334;2023-01-10T14:32:46;100985.22;;;15.29
45393;BMP280;31129;44.810;10.334;2023-01-10T14:35:19;100977.53;;;15.33
45393;BMP280;31129;44.810;10.334;2023-01-10T14:37:50;100991.53;;;15.41
45393;BMP280;31129;44.810;10.334;2023-01-10T14:40:23;100984.28;;;15.38
45393;BMP280;31129;44.810;10.334;2023-01-10T14:42:50;100998.94;;;15.24
45393;BMP280;31129;44.810;10.334;2023-01-10T14:45:32;100997.69;;;15.25
45393;BMP280;31129;44.810;10.334;2023-01-10T14:47:58;100996.19;;;15.24
45393;BMP280;31129;44.810;10.334;2023-01-10T14:50:29;100982.94;;;15.17
45393;BMP280;31129;44.810;10.334;2023-01-10T14:52:59;100993.41;;;15.18
45393;BMP280;31129;44.810;10.334;2023-01-10T14:55:24;100990.38;;;15.11
45393;BMP280;31129;44.810;10.334;2023-01-10T14:57:58;100983.84;;;15.08
45393;BMP280;31129;44.810;10.334;2023-01-10T15:02:51;100989.16;;;15.17
45393;BMP280;31129;44.810;10.334;2023-01-10T15:07:43;100992.66;;;15.18
45393;BMP280;31129;44.810;10.334;2023-01-10T15:12:42;101009.06;;;15.07
45393;BMP280;31129;44.810;10.334;2023-01-10T15:15:18;101009.34;;;15.09
45393;BMP280;31129;44.810;10.334;2023-01-10T15:17:44;101007.81;;;15.02
45393;BMP280;31129;44.810;10.334;2023-01-10T15:20:15;101003.56;;;15.01
45393;BMP280;31129;44.810;10.334;2023-01-10T15:22:45;101012.19;;;14.88
45393;BMP280;31129;44.810;10.334;2023-01-10T15:27:48;101008.09;;;14.47
45393;BMP280;31129;44.810;10.334;2023-01-10T15:30:19;101015.16;;;14.27
45393;BMP280;31129;44.810;10.334;2023-01-10T15:32:48;101011.38;;;14.25
45393;BMP280;31129;44.810;10.334;2023-01-10T15:35:14;101015.53;;;14.15
45393;BMP280;31129;44.810;10.334;2023-01-10T15:37:47;101019.63;;;14.05
45393;BMP280;31129;44.810;10.334;2023-01-10T15:40:24;101007.84;;;13.99